Wyndham, Western Australia

4:54 AM AWST on February 10, 2016 (GMT +0800)
Kununurra | | Change Station
CLOSE
Current Station
Airport
Location: Kununurra,
Elevation: 144 ft
Nearby Weather Stations

Elev 144 ft 15.78 °S, 128.71 °E | Updated 24 minutes ago

Clear
Clear
81 °F
Feels Like 87 °F
N
0
Wind Variable Wind from North

Today
High -- | Low -- °F
--% Chance of Precip.
Yesterday
High -- | Low -- °F
Precip. -- in
Pressure 29.71 in
Visibility 6.2 miles
Clouds
Heat Index 87 °F
Dew Point 77 °F
Humidity 89%
Rainfall 0.00 in
Snow Depth Not available.
5:21 AM 6:01 PM
New Moon, 2% visible
METAR YPKU 092030Z AUTO 00000KT 9999 // NCD 27/25 Q1006
Pressure 29.71 in
Visibility 6.2 miles
Clouds
Heat Index 87 °F
Dew Point 77 °F
Humidity 89%
Rainfall 0.00 in
Snow Depth Not available.
5:21 AM 6:01 PM
New Moon, 2% visible
METAR YPKU 092030Z AUTO 00000KT 9999 // NCD 27/25 Q1006

10-Day Weather Forecast

Almanac

Astronomy

Feb. 10, 2016 Rise Set
Actual Time
Civil Twilight
Nautical Twilight
Astronomical Twilight
Moon
Length of Visible Light
Length of Day
Tomorrow will be .
, % of the Moon is Illuminated

Today's Extremes

Country Highs Country Lows

Community

WunderPhotos

Upload Photos

1,891,683 photos uploaded!

WunderBlog® & News

Nearby

Air Quality

  Air Quality AQ Index Pollutant
Not available.

Snow Depth

Station Depth Elevation

Earthquake Activity

City Distance Mag. Time & Date
Minimum magnitude displayed is 2.5.

Coastal Water Temperatures

Place Temperature

Stations

Nearby Weather Stations

Station Location Temp. Windchill Dew Point Humidity Wind Precip. Elev Updated Type